Time;durP1;ratioP1;P1;durP2;ratioP2;P2;SDS_P1;SDS_P2;PMS_P1;PMS_P2;Temp;Humidity;BMP_temperature;BMP_pressure;BME280_temperature;BME280_humidity;BME280_pressure;Samples;Min_cycle;Max_cycle;Signal;HPM_P1;HPM_P2
2021/10/15 00:02:15;;;;;;;9.82;5.68;;;;;;;;;;5093098;28;20032;-77
2021/10/15 00:04:41;;;;;;;7.90;5.15;;;;;;;;;;5092837;28;20161;-77
2021/10/15 00:07:06;;;;;;;10.23;5.35;;;;;;;;;;5093103;28;20036;-77
2021/10/15 00:09:31;;;;;;;9.88;5.97;;;;;;;;;;5093044;28;20039;-77
2021/10/15 00:11:57;;;;;;;12.10;6.50;;;;;;;;;;5092179;28;20493;-77
2021/10/15 00:14:22;;;;;;;10.27;5.85;;;;;;;;;;5090587;28;20430;-77
2021/10/15 00:16:48;;;;;;;10.75;5.57;;;;;;;;;;5090859;28;20054;-77
2021/10/15 00:19:13;;;;;;;10.85;5.38;;;;;;;;;;5092451;28;20093;-76
2021/10/15 00:21:39;;;;;;;8.77;6.00;;;;;;;;;;5092626;28;20032;-77
2021/10/15 00:24:04;;;;;;;12.13;5.45;;;;;;;;;;5092581;28;20035;-76
2021/10/15 00:26:30;;;;;;;8.90;5.43;;;;;;;;;;5092986;28;20040;-77
2021/10/15 00:28:55;;;;;;;8.80;5.57;;;;;;;;;;5091220;28;20040;-77
2021/10/15 00:31:20;;;;;;;8.77;5.25;;;;;;;;;;5091396;28;20161;-77
2021/10/15 00:33:46;;;;;;;7.22;4.75;;;;;;;;;;5091836;28;20060;-77
2021/10/15 00:36:11;;;;;;;10.70;5.47;;;;;;;;;;5092867;28;20040;-77
2021/10/15 00:38:36;;;;;;;11.60;4.88;;;;;;;;;;5092676;28;20473;-77
2021/10/15 00:41:02;;;;;;;8.82;5.45;;;;;;;;;;5091663;28;20097;-77
2021/10/15 00:43:27;;;;;;;12.65;5.72;;;;;;;;;;5092926;28;20032;-77
2021/10/15 00:45:53;;;;;;;7.53;5.25;;;;;;;;;;5091659;28;20481;-76
2021/10/15 00:48:18;;;;;;;13.70;5.63;;;;;;;;;;5092699;28;20039;-77
2021/10/15 00:50:45;;;;;;;8.07;5.03;;;;;;;;;;5095854;28;20040;-77
2021/10/15 00:53:12;;;;;;;14.93;6.00;;;;;;;;;;5095816;28;20469;-77
2021/10/15 00:55:37;;;;;;;13.18;5.15;;;;;;;;;;5096201;28;20054;-77
2021/10/15 00:58:02;;;;;;;11.73;5.38;;;;;;;;;;5096593;28;20036;-77
2021/10/15 01:00:28;;;;;;;9.80;5.00;;;;;;;;;;5094858;28;20076;-77
2021/10/15 01:02:54;;;;;;;8.25;4.78;;;;;;;;;;5093266;28;20080;-77
2021/10/15 01:05:19;;;;;;;8.93;4.97;;;;;;;;;;5092990;28;20039;-77
2021/10/15 01:07:45;;;;;;;8.00;4.35;;;;;;;;;;5093243;28;20062;-76
2021/10/15 01:10:10;;;;;;;8.25;5.05;;;;;;;;;;5093536;28;20028;-76
2021/10/15 01:12:37;;;;;;;6.28;4.50;;;;;;;;;;5092034;28;20064;-77
2021/10/15 01:15:04;;;;;;;6.60;4.20;;;;;;;;;;5093487;28;20036;-77
2021/10/15 01:17:29;;;;;;;10.40;4.70;;;;;;;;;;5094690;28;20040;-76
2021/10/15 01:19:55;;;;;;;6.43;4.03;;;;;;;;;;5095440;28;20036;-76
2021/10/15 01:22:26;;;;;;;11.52;4.55;;;;;;;;;;5095119;28;20040;-77
2021/10/15 01:24:51;;;;;;;7.97;4.60;;;;;;;;;;5094370;28;20039;-77
2021/10/15 01:27:17;;;;;;;7.72;4.18;;;;;;;;;;5094419;28;20058;-76
2021/10/15 01:29:42;;;;;;;9.10;4.43;;;;;;;;;;5093230;28;20063;-77
2021/10/15 01:32:11;;;;;;;12.27;4.38;;;;;;;;;;5095188;28;20040;-77
2021/10/15 01:34:37;;;;;;;6.47;4.15;;;;;;;;;;5095064;28;20054;-77
2021/10/15 01:37:03;;;;;;;7.22;4.35;;;;;;;;;;5095624;28;20055;-77
2021/10/15 01:39:28;;;;;;;9.00;3.65;;;;;;;;;;5094915;28;20086;-77
2021/10/15 01:41:55;;;;;;;5.78;3.80;;;;;;;;;;5093807;28;20502;-77
2021/10/15 01:44:20;;;;;;;7.07;3.80;;;;;;;;;;5091947;28;20036;-77
2021/10/15 01:46:46;;;;;;;8.73;4.07;;;;;;;;;;5092712;28;20036;-77
2021/10/15 01:49:11;;;;;;;4.97;3.22;;;;;;;;;;5095205;28;20040;-77
2021/10/15 01:51:36;;;;;;;6.68;3.65;;;;;;;;;;5094870;28;20058;-77
2021/10/15 01:54:02;;;;;;;5.85;4.30;;;;;;;;;;5094498;28;20051;-77
2021/10/15 01:56:27;;;;;;;7.55;3.45;;;;;;;;;;5094862;28;20028;-77
2021/10/15 01:58:53;;;;;;;4.20;3.45;;;;;;;;;;5094626;28;20139;-77
2021/10/15 02:01:18;;;;;;;5.82;3.30;;;;;;;;;;5095109;28;20075;-77
2021/10/15 02:03:43;;;;;;;7.35;3.92;;;;;;;;;;5094454;28;20074;-77
2021/10/15 02:06:09;;;;;;;10.18;4.40;;;;;;;;;;5094269;28;20071;-77
2021/10/15 02:08:34;;;;;;;6.78;3.47;;;;;;;;;;5094343;28;20040;-77
2021/10/15 02:11:00;;;;;;;8.88;4.13;;;;;;;;;;5094634;28;20047;-76
2021/10/15 02:13:25;;;;;;;9.27;4.72;;;;;;;;;;5094756;28;20028;-77
2021/10/15 02:15:51;;;;;;;9.35;3.83;;;;;;;;;;5101199;28;20036;-81
2021/10/15 02:18:17;;;;;;;6.05;2.85;;;;;;;;;;5107513;28;20065;-81
2021/10/15 02:20:44;;;;;;;7.50;3.05;;;;;;;;;;5106852;28;20051;-82
2021/10/15 02:23:10;;;;;;;5.85;3.03;;;;;;;;;;5102888;28;20058;-83
2021/10/15 02:25:35;;;;;;;7.43;3.50;;;;;;;;;;5098983;28;20043;-80
2021/10/15 02:28:02;;;;;;;11.98;4.22;;;;;;;;;;5098147;28;20024;-80
2021/10/15 02:30:28;;;;;;;8.95;4.78;;;;;;;;;;5098893;28;20067;-80
2021/10/15 02:32:55;;;;;;;6.88;4.22;;;;;;;;;;5098602;28;20119;-80
2021/10/15 02:35:20;;;;;;;7.75;3.10;;;;;;;;;;5102981;28;20059;-82
2021/10/15 02:37:46;;;;;;;6.25;3.25;;;;;;;;;;5101953;28;20471;-79
2021/10/15 02:40:12;;;;;;;6.30;3.55;;;;;;;;;;5095611;28;20121;-80
2021/10/15 02:42:38;;;;;;;6.20;3.10;;;;;;;;;;5076788;28;20040;-80
2021/10/15 02:45:05;;;;;;;5.82;2.67;;;;;;;;;;5079622;28;20072;-81
2021/10/15 02:47:30;;;;;;;6.90;3.53;;;;;;;;;;5078192;28;20032;-79
2021/10/15 02:49:55;;;;;;;4.60;2.97;;;;;;;;;;5076825;28;20402;-78
2021/10/15 02:52:21;;;;;;;5.50;2.80;;;;;;;;;;5074021;28;20039;-79
2021/10/15 02:54:46;;;;;;;5.03;2.67;;;;;;;;;;5076346;28;20036;-81
2021/10/15 02:57:12;;;;;;;9.02;2.72;;;;;;;;;;5076722;28;20049;-79
2021/10/15 02:59:37;;;;;;;5.32;2.90;;;;;;;;;;5079391;28;20086;-79
2021/10/15 03:02:02;;;;;;;6.95;2.95;;;;;;;;;;5078996;28;20070;-79
2021/10/15 03:04:28;;;;;;;5.95;2.83;;;;;;;;;;5079322;28;20385;-78
2021/10/15 03:06:53;;;;;;;5.28;2.40;;;;;;;;;;5078167;28;20054;-79
2021/10/15 03:09:19;;;;;;;9.38;2.75;;;;;;;;;;5077815;28;20100;-78
2021/10/15 03:11:44;;;;;;;6.85;2.47;;;;;;;;;;5076467;28;20043;-78
2021/10/15 03:14:09;;;;;;;8.23;2.40;;;;;;;;;;5076578;28;20066;-79
2021/10/15 03:16:35;;;;;;;6.88;2.58;;;;;;;;;;5076881;28;20036;-79
2021/10/15 03:19:00;;;;;;;3.97;2.20;;;;;;;;;;5076544;28;20122;-79
2021/10/15 03:21:26;;;;;;;5.78;2.50;;;;;;;;;;5076559;28;20102;-78
2021/10/15 03:23:52;;;;;;;4.15;2.53;;;;;;;;;;5079955;28;20565;-78
2021/10/15 03:26:17;;;;;;;4.05;2.22;;;;;;;;;;5096137;28;20036;-79
2021/10/15 03:28:43;;;;;;;12.27;3.03;;;;;;;;;;5095805;28;20521;-78
2021/10/15 03:31:08;;;;;;;2.63;1.80;;;;;;;;;;5096104;28;20028;-79
2021/10/15 03:33:33;;;;;;;6.50;2.30;;;;;;;;;;5096251;28;20067;-79
2021/10/15 03:36:00;;;;;;;9.15;2.40;;;;;;;;;;5094300;28;20063;-78
2021/10/15 03:38:25;;;;;;;5.35;2.47;;;;;;;;;;5096111;28;20032;-79
2021/10/15 03:40:50;;;;;;;4.18;2.30;;;;;;;;;;5094574;28;20119;-79
2021/10/15 03:43:16;;;;;;;11.25;2.28;;;;;;;;;;5094843;28;20047;-78
2021/10/15 03:45:41;;;;;;;5.50;2.20;;;;;;;;;;5095044;28;20116;-78
2021/10/15 03:48:06;;;;;;;3.55;1.92;;;;;;;;;;5095273;28;20059;-78
2021/10/15 03:50:32;;;;;;;6.93;2.13;;;;;;;;;;5094103;28;20477;-78
2021/10/15 03:52:57;;;;;;;4.30;2.00;;;;;;;;;;5096820;28;20035;-79
2021/10/15 03:55:24;;;;;;;4.15;2.30;;;;;;;;;;5096830;28;20465;-79
2021/10/15 03:57:49;;;;;;;5.88;2.13;;;;;;;;;;5096443;28;20028;-79
2021/10/15 04:00:15;;;;;;;4.43;2.33;;;;;;;;;;5097168;28;20028;-79
2021/10/15 04:02:43;;;;;;;5.70;2.00;;;;;;;;;;5095058;28;20493;-79
2021/10/15 04:05:10;;;;;;;6.18;2.00;;;;;;;;;;5095370;28;20092;-79
2021/10/15 04:07:36;;;;;;;6.85;2.50;;;;;;;;;;5095450;28;20116;-79
2021/10/15 04:10:03;;;;;;;5.30;2.33;;;;;;;;;;5094882;28;20331;-78
2021/10/15 04:12:29;;;;;;;4.70;2.30;;;;;;;;;;5095061;28;20031;-78
2021/10/15 04:14:54;;;;;;;9.35;2.20;;;;;;;;;;5094477;28;20066;-79
2021/10/15 04:17:19;;;;;;;4.72;2.03;;;;;;;;;;5094391;28;20118;-79
2021/10/15 04:19:45;;;;;;;5.80;2.30;;;;;;;;;;5094720;28;20081;-79
2021/10/15 04:22:10;;;;;;;5.78;2.10;;;;;;;;;;5094991;28;20123;-78
2021/10/15 04:24:37;;;;;;;3.92;1.80;;;;;;;;;;5095992;28;20043;-79
2021/10/15 04:27:03;;;;;;;7.13;2.05;;;;;;;;;;5102039;28;20048;-79
2021/10/15 04:29:28;;;;;;;8.25;2.30;;;;;;;;;;5101677;28;20028;-79
2021/10/15 04:31:54;;;;;;;4.80;2.50;;;;;;;;;;5101640;28;20512;-79
2021/10/15 04:34:19;;;;;;;7.63;3.38;;;;;;;;;;5100928;28;20437;-79
2021/10/15 04:36:44;;;;;;;7.05;2.60;;;;;;;;;;5101313;28;20381;-79
2021/10/15 04:39:10;;;;;;;5.65;2.55;;;;;;;;;;5100601;28;20093;-79
2021/10/15 04:41:35;;;;;;;3.00;2.05;;;;;;;;;;5100827;28;20036;-79
2021/10/15 04:44:00;;;;;;;4.70;2.03;;;;;;;;;;5100770;28;20158;-79
2021/10/15 04:46:27;;;;;;;6.72;2.70;;;;;;;;;;5099954;28;20545;-79
2021/10/15 04:48:53;;;;;;;8.43;2.20;;;;;;;;;;5098856;28;20048;-79
2021/10/15 04:51:18;;;;;;;7.03;2.30;;;;;;;;;;5100168;28;20058;-79
2021/10/15 04:53:43;;;;;;;8.27;3.03;;;;;;;;;;5089585;28;20054;-79
2021/10/15 04:56:09;;;;;;;7.72;2.90;;;;;;;;;;5080130;28;20029;-79
2021/10/15 04:58:34;;;;;;;6.53;2.67;;;;;;;;;;5079601;28;20082;-79
2021/10/15 05:00:59;;;;;;;7.63;3.03;;;;;;;;;;5080995;28;20040;-79
2021/10/15 05:03:25;;;;;;;4.20;2.30;;;;;;;;;;5081744;28;20084;-79
2021/10/15 05:05:51;;;;;;;6.22;2.70;;;;;;;;;;5081330;28;20071;-79
2021/10/15 05:08:16;;;;;;;9.68;3.00;;;;;;;;;;5080031;28;20039;-79
2021/10/15 05:10:45;;;;;;;11.60;2.85;;;;;;;;;;5079925;28;20036;-79
2021/10/15 05:13:11;;;;;;;13.38;3.15;;;;;;;;;;5085404;28;20469;-79
2021/10/15 05:15:37;;;;;;;12.13;2.97;;;;;;;;;;5099871;28;20446;-79
2021/10/15 05:18:02;;;;;;;5.25;2.55;;;;;;;;;;5099109;28;20039;-79
2021/10/15 05:20:28;;;;;;;8.35;2.53;;;;;;;;;;5098051;28;20043;-79
2021/10/15 05:22:53;;;;;;;5.53;2.55;;;;;;;;;;5100243;28;20044;-79
2021/10/15 05:25:18;;;;;;;7.72;3.17;;;;;;;;;;5099494;28;20040;-79
2021/10/15 05:27:44;;;;;;;7.00;3.15;;;;;;;;;;5099634;28;20118;-79
2021/10/15 05:30:10;;;;;;;4.97;2.70;;;;;;;;;;5099686;28;20523;-78
2021/10/15 05:32:37;;;;;;;9.27;3.13;;;;;;;;;;5099585;28;20104;-79
2021/10/15 05:35:03;;;;;;;8.07;3.10;;;;;;;;;;5098688;28;20040;-79
2021/10/15 05:37:28;;;;;;;7.55;3.40;;;;;;;;;;5099217;28;20043;-79
2021/10/15 05:39:55;;;;;;;6.88;3.22;;;;;;;;;;5098462;28;20047;-79
2021/10/15 05:42:20;;;;;;;12.98;3.67;;;;;;;;;;5097784;28;20085;-78
2021/10/15 05:44:47;;;;;;;12.65;3.20;;;;;;;;;;5098876;28;20118;-79
2021/10/15 05:47:13;;;;;;;9.07;3.30;;;;;;;;;;5098453;28;20046;-79
2021/10/15 05:49:39;;;;;;;11.93;3.92;;;;;;;;;;5098701;28;20122;-79
2021/10/15 05:52:15;;;;;;;5.30;3.17;;;;;;;;;;5098741;28;20047;-78
2021/10/15 05:55:03;;;;;;;7.68;3.20;;;;;;;;;;5094351;28;20067;-77
2021/10/15 05:58:49;;;;;;;5.63;3.05;;;;;;;;;;5095923;28;20110;-78
2021/10/15 06:00:13;;;;;;;8.82;3.75;;;;;;;;;;5095296;28;20089;-78
2021/10/15 06:02:42;;;;;;;11.20;3.45;;;;;;;;;;5095402;28;20043;-78
2021/10/15 06:15:47;;;;;;;8.43;3.17;;;;;;;;;;5094127;28;20039;-78
2021/10/15 06:18:18;;;;;;;9.35;3.10;;;;;;;;;;5094864;28;20593;-78
2021/10/15 06:20:44;;;;;;;7.63;3.45;;;;;;;;;;5095813;28;20032;-79
2021/10/15 06:23:11;;;;;;;9.68;3.38;;;;;;;;;;5097446;28;20530;-80
2021/10/15 06:25:37;;;;;;;7.35;3.40;;;;;;;;;;5098411;28;20362;-80
2021/10/15 06:28:03;;;;;;;9.60;3.20;;;;;;;;;;5095949;28;20039;-79
2021/10/15 06:30:30;;;;;;;7.85;3.58;;;;;;;;;;5096794;28;20038;-80
2021/10/15 06:32:55;;;;;;;5.97;3.30;;;;;;;;;;5097312;28;20066;-80
2021/10/15 06:35:21;;;;;;;6.22;3.30;;;;;;;;;;5097589;28;20408;-79
2021/10/15 06:37:47;;;;;;;8.35;3.65;;;;;;;;;;5097206;28;20084;-79
2021/10/15 06:40:12;;;;;;;12.25;3.78;;;;;;;;;;5096670;28;20126;-79
2021/10/15 06:42:38;;;;;;;6.75;3.55;;;;;;;;;;5094307;28;20035;-78
2021/10/15 06:45:04;;;;;;;12.93;4.53;;;;;;;;;;5096268;28;20059;-79
2021/10/15 06:47:29;;;;;;;11.80;3.97;;;;;;;;;;5096951;28;20032;-78
2021/10/15 06:49:55;;;;;;;11.30;4.03;;;;;;;;;;5094756;28;20385;-78
2021/10/15 06:52:21;;;;;;;12.20;3.65;;;;;;;;;;5097737;28;20035;-80
2021/10/15 06:54:47;;;;;;;7.95;3.75;;;;;;;;;;5096352;28;20078;-78
2021/10/15 06:57:12;;;;;;;8.20;3.40;;;;;;;;;;5094754;28;20058;-80
2021/10/15 06:59:38;;;;;;;12.35;4.35;;;;;;;;;;5093454;28;20097;-78
2021/10/15 07:02:04;;;;;;;7.97;3.63;;;;;;;;;;5097392;28;20038;-81
2021/10/15 07:04:29;;;;;;;15.73;3.75;;;;;;;;;;5096792;28;20031;-79
2021/10/15 07:06:55;;;;;;;6.07;3.22;;;;;;;;;;5094995;28;20065;-79
2021/10/15 07:09:20;;;;;;;5.47;3.28;;;;;;;;;;5094939;28;20041;-80
2021/10/15 07:11:47;;;;;;;10.93;3.53;;;;;;;;;;5097743;28;20040;-80
2021/10/15 07:14:16;;;;;;;11.60;3.95;;;;;;;;;;5095714;28;20081;-81
2021/10/15 07:16:41;;;;;;;10.68;3.60;;;;;;;;;;5102260;28;20122;-81
2021/10/15 07:19:07;;;;;;;6.50;3.65;;;;;;;;;;5097696;28;20071;-78
2021/10/15 07:21:33;;;;;;;11.82;3.60;;;;;;;;;;5095865;28;20043;-77
2021/10/15 07:23:58;;;;;;;13.32;3.65;;;;;;;;;;5096853;28;20036;-80
2021/10/15 07:26:24;;;;;;;8.40;3.25;;;;;;;;;;5096849;28;20032;-78
2021/10/15 07:28:50;;;;;;;6.40;3.15;;;;;;;;;;5095523;28;20028;-79
2021/10/15 07:31:15;;;;;;;9.85;3.30;;;;;;;;;;5097144;28;20024;-80
2021/10/15 07:33:43;;;;;;;6.30;2.95;;;;;;;;;;5099273;28;20035;-80
2021/10/15 07:36:11;;;;;;;7.80;3.33;;;;;;;;;;5094986;28;20036;-79
2021/10/15 07:38:37;;;;;;;10.55;3.95;;;;;;;;;;5095884;28;20054;-78
2021/10/15 07:41:03;;;;;;;6.55;3.17;;;;;;;;;;5080337;28;20048;-79
2021/10/15 07:43:29;;;;;;;12.32;3.58;;;;;;;;;;5077610;28;20068;-79
2021/10/15 07:45:54;;;;;;;8.13;3.67;;;;;;;;;;5078843;28;20066;-82
2021/10/15 07:48:20;;;;;;;10.32;3.72;;;;;;;;;;5080913;28;20036;-80
2021/10/15 07:50:45;;;;;;;9.70;3.30;;;;;;;;;;5080396;28;20103;-80
2021/10/15 07:53:11;;;;;;;8.57;3.45;;;;;;;;;;5081251;28;20041;-81
2021/10/15 07:55:36;;;;;;;8.75;3.00;;;;;;;;;;5080642;28;20096;-81
2021/10/15 07:58:01;;;;;;;9.13;2.72;;;;;;;;;;5076689;28;20036;-80
2021/10/15 08:00:27;;;;;;;10.63;3.13;;;;;;;;;;5081631;28;20043;-79
2021/10/15 08:02:53;;;;;;;12.20;3.40;;;;;;;;;;5080695;28;20032;-79
2021/10/15 08:05:19;;;;;;;4.88;2.72;;;;;;;;;;5080125;28;20074;-79
2021/10/15 08:07:45;;;;;;;9.35;3.35;;;;;;;;;;5085389;28;20040;-79
2021/10/15 08:10:11;;;;;;;15.65;3.35;;;;;;;;;;5083906;28;20434;-76
2021/10/15 08:12:37;;;;;;;13.20;3.58;;;;;;;;;;5098564;28;20046;-77
2021/10/15 08:15:09;;;;;;;10.30;3.00;;;;;;;;;;5098661;28;20077;-77
2021/10/15 08:17:35;;;;;;;11.38;3.50;;;;;;;;;;5097529;28;20068;-76
2021/10/15 08:20:01;;;;;;;7.53;3.50;;;;;;;;;;5097857;28;20067;-79
2021/10/15 08:22:26;;;;;;;9.88;3.75;;;;;;;;;;5097030;28;20097;-77
2021/10/15 08:24:58;;;;;;;7.30;3.42;;;;;;;;;;5094241;28;20043;-78
2021/10/15 08:27:23;;;;;;;12.68;4.10;;;;;;;;;;5096582;28;20040;-77
2021/10/15 08:29:48;;;;;;;10.35;3.50;;;;;;;;;;5095134;28;20098;-77
2021/10/15 08:32:14;;;;;;;9.18;4.00;;;;;;;;;;5096437;28;20036;-77
2021/10/15 08:34:39;;;;;;;8.30;3.08;;;;;;;;;;5096502;28;20032;-77
2021/10/15 08:37:05;;;;;;;7.30;3.50;;;;;;;;;;5096252;28;20355;-77
2021/10/15 08:39:30;;;;;;;11.55;3.42;;;;;;;;;;5094114;28;20028;-77
2021/10/15 08:41:57;;;;;;;7.88;3.50;;;;;;;;;;5095160;28;20041;-76
2021/10/15 08:44:29;;;;;;;9.45;3.50;;;;;;;;;;5096460;28;20059;-77
2021/10/15 08:46:55;;;;;;;7.75;3.72;;;;;;;;;;5097728;28;20092;-77
2021/10/15 08:49:20;;;;;;;7.70;3.30;;;;;;;;;;5097289;28;20124;-77
2021/10/15 08:51:48;;;;;;;17.33;4.10;;;;;;;;;;5096778;28;20096;-77
2021/10/15 08:54:14;;;;;;;6.50;3.53;;;;;;;;;;5097634;28;20032;-77
2021/10/15 08:56:41;;;;;;;9.10;3.40;;;;;;;;;;5098045;28;20051;-77
2021/10/15 08:59:08;;;;;;;9.02;3.83;;;;;;;;;;5097843;28;20032;-77
2021/10/15 09:01:45;;;;;;;8.38;3.13;;;;;;;;;;5097626;28;20047;-77
2021/10/15 09:04:16;;;;;;;6.13;3.03;;;;;;;;;;5097262;28;20118;-77
2021/10/15 09:06:41;;;;;;;6.78;3.13;;;;;;;;;;5097859;28;20101;-77
2021/10/15 09:09:08;;;;;;;7.15;3.60;;;;;;;;;;5097199;28;20039;-77
2021/10/15 09:11:33;;;;;;;7.30;3.90;;;;;;;;;;5095009;28;20035;-77
2021/10/15 09:14:03;;;;;;;9.55;3.60;;;;;;;;;;5096126;28;20040;-77
2021/10/15 09:16:28;;;;;;;9.45;2.95;;;;;;;;;;5097020;28;20032;-77
2021/10/15 09:18:53;;;;;;;5.10;2.80;;;;;;;;;;5095613;28;20153;-75
2021/10/15 09:21:19;;;;;;;8.93;4.03;;;;;;;;;;5095127;28;20047;-75
2021/10/15 09:23:48;;;;;;;10.73;4.97;;;;;;;;;;5094610;28;20112;-76
2021/10/15 09:26:14;;;;;;;8.45;2.95;;;;;;;;;;5095841;28;20039;-79
2021/10/15 09:28:42;;;;;;;7.28;3.28;;;;;;;;;;5096052;28;20042;-77
2021/10/15 09:31:09;;;;;;;8.77;3.30;;;;;;;;;;5095784;28;20028;-77
2021/10/15 09:33:34;;;;;;;6.63;3.33;;;;;;;;;;5063190;28;20020;-77
2021/10/15 09:36:05;;;;;;;8.15;3.20;;;;;;;;;;5064851;28;21066;-81
2021/10/15 09:38:31;;;;;;;10.57;3.22;;;;;;;;;;5064425;28;21238;-78
2021/10/15 09:40:56;;;;;;;7.70;3.45;;;;;;;;;;5062480;28;20213;-79
2021/10/15 09:43:33;;;;;;;10.68;3.80;;;;;;;;;;5062498;28;20132;-79
2021/10/15 09:45:59;;;;;;;14.40;3.58;;;;;;;;;;5063789;28;20024;-77
2021/10/15 09:48:25;;;;;;;6.85;3.70;;;;;;;;;;5061985;28;20027;-76
2021/10/15 09:51:19;;;;;;;6.80;2.97;;;;;;;;;;5065482;28;20621;-79
2021/10/15 09:54:07;;;;;;;7.65;3.65;;;;;;;;;;5066927;28;21142;-77
2021/10/15 09:56:46;;;;;;;11.57;3.95;;;;;;;;;;5067082;28;20027;-75
2021/10/15 09:59:12;;;;;;;14.63;4.90;;;;;;;;;;5066703;28;20043;-80
2021/10/15 10:01:38;;;;;;;9.32;4.57;;;;;;;;;;5067075;28;20020;-77
2021/10/15 10:04:08;;;;;;;7.75;4.20;;;;;;;;;;5069553;28;20092;-79
2021/10/15 10:06:34;;;;;;;11.68;4.72;;;;;;;;;;5070123;28;20166;-81
2021/10/15 10:08:59;;;;;;;10.13;4.53;;;;;;;;;;5068036;28;20111;-80
2021/10/15 10:11:27;;;;;;;9.60;4.15;;;;;;;;;;5073214;28;20020;-81
2021/10/15 10:13:53;;;;;;;7.00;4.40;;;;;;;;;;5069632;28;20016;-77
2021/10/15 10:16:21;;;;;;;7.63;4.63;;;;;;;;;;5067974;28;20097;-77
2021/10/15 10:18:47;;;;;;;10.95;4.32;;;;;;;;;;5071359;28;20020;-78
2021/10/15 10:21:22;;;;;;;8.27;4.55;;;;;;;;;;5071251;28;20492;-78
2021/10/15 10:24:14;;;;;;;9.27;4.53;;;;;;;;;;5071343;28;20024;-77
2021/10/15 10:26:45;;;;;;;17.13;6.13;;;;;;;;;;5071683;28;21051;-77
2021/10/15 10:29:10;;;;;;;9.35;4.80;;;;;;;;;;5070995;28;20055;-79
2021/10/15 10:31:36;;;;;;;9.40;4.82;;;;;;;;;;5069430;28;20687;-78
2021/10/15 10:34:05;;;;;;;7.70;4.45;;;;;;;;;;5068407;28;20024;-78
2021/10/15 10:36:32;;;;;;;9.05;4.28;;;;;;;;;;5068190;28;20028;-78
2021/10/15 10:39:20;;;;;;;9.65;3.40;;;;;;;;;;5062728;28;20063;-78
2021/10/15 10:42:07;;;;;;;3.00;2.10;;;;;;;;;;5062603;28;20059;-78
2021/10/15 10:44:35;;;;;;;4.57;1.77;;;;;;;;;;5066364;28;20016;-78
2021/10/15 10:47:09;;;;;;;1.45;1.23;;;;;;;;;;5064067;28;20027;-76
2021/10/15 10:49:35;;;;;;;1.35;1.17;;;;;;;;;;5064063;28;20059;-76
2021/10/15 10:52:13;;;;;;;1.42;1.30;;;;;;;;;;5064309;28;20031;-77
2021/10/15 10:54:40;;;;;;;1.88;1.05;;;;;;;;;;5064215;28;20545;-76
2021/10/15 10:57:23;;;;;;;1.50;1.00;;;;;;;;;;5063976;28;20049;-76
2021/10/15 10:59:51;;;;;;;2.65;0.82;;;;;;;;;;5062832;28;20025;-76
2021/10/15 11:02:20;;;;;;;1.63;0.95;;;;;;;;;;5064135;28;20062;-76
2021/10/15 11:04:56;;;;;;;2.22;1.13;;;;;;;;;;5062937;28;20066;-76
2021/10/15 11:07:26;;;;;;;2.67;1.17;;;;;;;;;;5064172;28;20117;-76
2021/10/15 11:10:00;;;;;;;1.23;1.10;;;;;;;;;;5064085;28;20111;-76
2021/10/15 11:12:25;;;;;;;1.73;1.00;;;;;;;;;;5049841;28;20044;-76
2021/10/15 11:14:58;;;;;;;2.05;1.20;;;;;;;;;;5060420;28;20180;-76
2021/10/15 11:17:26;;;;;;;4.22;1.55;;;;;;;;;;5062496;28;20035;-77
2021/10/15 11:20:23;;;;;;;2.20;1.38;;;;;;;;;;5062595;28;20020;-76
2021/10/15 11:22:48;;;;;;;;;;;;;;;;;;5086977;28;20031;-77
2021/10/15 11:25:14;;;;;;;1.27;1.03;;;;;;;;;;5109024;28;19908;-78
2021/10/15 11:27:41;;;;;;;3.33;1.33;;;;;;;;;;5115650;28;20385;-77
2021/10/15 11:30:10;;;;;;;4.68;1.27;;;;;;;;;;5114284;28;20030;-76
2021/10/15 11:32:42;;;;;;;1.52;1.27;;;;;;;;;;5113546;28;20118;-76
2021/10/15 11:35:18;;;;;;;3.88;1.23;;;;;;;;;;5090638;28;20060;-77
2021/10/15 11:37:46;;;;;;;1.40;1.02;;;;;;;;;;5085105;28;20036;-75
2021/10/15 11:40:19;;;;;;;2.20;1.00;;;;;;;;;;5084042;28;20040;-76
2021/10/15 11:42:45;;;;;;;1.83;0.82;;;;;;;;;;5088215;28;20027;-75
2021/10/15 11:45:24;;;;;;;0.82;0.68;;;;;;;;;;5085211;28;20523;-76
2021/10/15 11:48:03;;;;;;;1.65;1.10;;;;;;;;;;5092899;28;20036;-76
2021/10/15 11:50:41;;;;;;;1.75;1.35;;;;;;;;;;5092488;28;20066;-77
2021/10/15 11:53:08;;;;;;;0.80;0.70;;;;;;;;;;5092675;28;20040;-76
2021/10/15 11:55:36;;;;;;;4.72;1.08;;;;;;;;;;5074487;28;20051;-77
2021/10/15 11:58:35;;;;;;;1.40;0.93;;;;;;;;;;5094109;28;20073;-76
2021/10/15 12:01:14;;;;;;;1.17;0.80;;;;;;;;;;5091676;28;20036;-76
2021/10/15 12:03:50;;;;;;;1.63;1.02;;;;;;;;;;5093297;28;20481;-76
2021/10/15 12:06:33;;;;;;;1.33;0.80;;;;;;;;;;5091849;28;20028;-74
2021/10/15 12:09:00;;;;;;;1.10;0.85;;;;;;;;;;5093246;28;20035;-76
2021/10/15 12:11:41;;;;;;;2.72;0.75;;;;;;;;;;5092813;28;20189;-76
2021/10/15 12:14:10;;;;;;;2.53;0.98;;;;;;;;;;5092415;28;20466;-75
2021/10/15 12:16:46;;;;;;;1.95;0.60;;;;;;;;;;5092381;28;20032;-75
2021/10/15 12:19:19;;;;;;;1.48;1.10;;;;;;;;;;5092968;28;20036;-76
2021/10/15 12:21:49;;;;;;;1.17;0.90;;;;;;;;;;5074983;28;20081;-75
2021/10/15 12:24:29;;;;;;;0.90;0.85;;;;;;;;;;5093059;28;20397;-75
2021/10/15 12:27:01;;;;;;;1.85;0.75;;;;;;;;;;5092775;28;20043;-75
2021/10/15 12:29:29;;;;;;;0.88;0.70;;;;;;;;;;5092814;28;20398;-76
2021/10/15 12:32:25;;;;;;;0.85;0.60;;;;;;;;;;5092833;28;20020;-75
2021/10/15 12:35:12;;;;;;;2.33;0.63;;;;;;;;;;5091407;28;20032;-76
2021/10/15 12:37:50;;;;;;;2.20;0.73;;;;;;;;;;5092604;28;20542;-75
2021/10/15 12:40:28;;;;;;;2.35;0.82;;;;;;;;;;5091695;28;20055;-76
2021/10/15 12:43:06;;;;;;;1.00;0.52;;;;;;;;;;5092839;28;20043;-75
2021/10/15 12:45:49;;;;;;;2.03;0.80;;;;;;;;;;5093137;28;20040;-76
2021/10/15 12:48:20;;;;;;;2.92;1.08;;;;;;;;;;5096542;28;20085;-76
2021/10/15 12:51:04;;;;;;;1.17;0.65;;;;;;;;;;5096555;28;20032;-75
2021/10/15 12:53:49;;;;;;;1.55;0.65;;;;;;;;;;5096716;28;20064;-75
2021/10/15 12:56:18;;;;;;;1.90;0.93;;;;;;;;;;5096363;28;20416;-76
2021/10/15 12:58:57;;;;;;;2.38;0.90;;;;;;;;;;5096222;28;20032;-75
2021/10/15 13:01:26;;;;;;;2.58;0.60;;;;;;;;;;5096183;28;20063;-76
2021/10/15 13:03:52;;;;;;;0.98;0.85;;;;;;;;;;5096452;28;20436;-75
2021/10/15 13:06:18;;;;;;;1.80;0.73;;;;;;;;;;5096321;28;20560;-76
2021/10/15 13:08:49;;;;;;;2.20;1.02;;;;;;;;;;5095127;28;20036;-75
2021/10/15 13:11:18;;;;;;;2.55;0.98;;;;;;;;;;5095791;28;20118;-75
2021/10/15 13:13:48;;;;;;;1.40;0.60;;;;;;;;;;5096273;28;20040;-76
2021/10/15 13:16:14;;;;;;;2.15;0.85;;;;;;;;;;5096210;28;20036;-76
2021/10/15 13:18:39;;;;;;;5.22;1.00;;;;;;;;;;5096206;28;20032;-75
2021/10/15 13:21:05;;;;;;;4.95;1.15;;;;;;;;;;5096079;28;20076;-76
2021/10/15 13:23:31;;;;;;;2.08;0.70;;;;;;;;;;5096108;28;20119;-75
2021/10/15 13:25:57;;;;;;;3.10;1.00;;;;;;;;;;5095141;28;20039;-75
2021/10/15 13:28:23;;;;;;;5.75;1.00;;;;;;;;;;5095905;28;20028;-75
2021/10/15 13:30:49;;;;;;;4.30;1.00;;;;;;;;;;5095795;28;20446;-75
2021/10/15 13:33:21;;;;;;;3.53;1.35;;;;;;;;;;5095978;28;20093;-76
2021/10/15 13:35:49;;;;;;;5.15;1.20;;;;;;;;;;5094489;28;20036;-75
2021/10/15 13:38:24;;;;;;;5.70;1.20;;;;;;;;;;5095717;28;20040;-75
2021/10/15 13:41:13;;;;;;;8.25;1.55;;;;;;;;;;5093805;28;20044;-75
2021/10/15 13:51:37;;;;;;;6.10;1.30;;;;;;;;;;5095645;28;20077;-76
2021/10/15 13:54:03;;;;;;;5.07;1.33;;;;;;;;;;5094763;28;20820;-77
2021/10/15 13:56:30;;;;;;;4.88;1.58;;;;;;;;;;5093669;28;20115;-77
2021/10/15 13:59:05;;;;;;;5.43;1.42;;;;;;;;;;5095256;28;20040;-76
2021/10/15 14:01:35;;;;;;;8.68;2.05;;;;;;;;;;5094929;28;20377;-77
2021/10/15 14:06:25;;;;;;;4.90;1.40;;;;;;;;;;5094389;28;20115;-76
2021/10/15 14:08:51;;;;;;;7.32;1.23;;;;;;;;;;5094901;28;20027;-76
2021/10/15 14:11:18;;;;;;;7.15;1.45;;;;;;;;;;5094468;28;20032;-76
2021/10/15 14:13:44;;;;;;;6.05;1.30;;;;;;;;;;5094653;28;20067;-78
2021/10/15 14:16:09;;;;;;;4.85;1.23;;;;;;;;;;5079160;28;20103;-78
2021/10/15 14:18:35;;;;;;;5.90;1.23;;;;;;;;;;5098336;28;20055;-78
2021/10/15 14:21:01;;;;;;;4.57;1.27;;;;;;;;;;5098100;28;20473;-78
2021/10/15 14:23:27;;;;;;;5.93;0.88;;;;;;;;;;5099002;28;20035;-78
2021/10/15 14:25:53;;;;;;;4.28;1.08;;;;;;;;;;5098564;28;20035;-78
2021/10/15 14:28:22;;;;;;;4.95;1.58;;;;;;;;;;5097719;28;20089;-78
2021/10/15 14:30:48;;;;;;;4.07;1.67;;;;;;;;;;5098425;28;20036;-78
2021/10/15 14:33:13;;;;;;;5.90;1.17;;;;;;;;;;5098225;28;20028;-78
2021/10/15 14:35:39;;;;;;;7.13;1.30;;;;;;;;;;5098190;28;20477;-78
2021/10/15 14:38:04;;;;;;;6.03;0.95;;;;;;;;;;5098247;28;20115;-78
2021/10/15 14:40:29;;;;;;;5.15;1.42;;;;;;;;;;5096025;28;20434;-78
2021/10/15 14:42:55;;;;;;;5.45;1.77;;;;;;;;;;5095273;28;20692;-79
2021/10/15 14:45:21;;;;;;;10.23;3.00;;;;;;;;;;5095761;28;20543;-77
2021/10/15 14:47:46;;;;;;;8.13;1.65;;;;;;;;;;5092158;28;20044;-78
2021/10/15 14:50:12;;;;;;;7.88;1.50;;;;;;;;;;5090330;28;20054;-78
2021/10/15 14:52:37;;;;;;;6.75;1.48;;;;;;;;;;5095518;28;20074;-78
2021/10/15 14:55:03;;;;;;;7.32;1.90;;;;;;;;;;5094093;28;20032;-78
2021/10/15 14:57:29;;;;;;;6.57;1.60;;;;;;;;;;5096947;28;20035;-78
2021/10/15 14:59:54;;;;;;;8.23;1.38;;;;;;;;;;5096237;28;20444;-78
2021/10/15 15:02:20;;;;;;;7.88;1.23;;;;;;;;;;5095615;28;20051;-78
2021/10/15 15:04:45;;;;;;;10.68;1.77;;;;;;;;;;5096530;28;20039;-78
2021/10/15 15:07:11;;;;;;;8.40;1.70;;;;;;;;;;5095758;28;20096;-78